Terminal Aerodrome Forecast
Issued by NWS

Current Version | Previous Version | Text Only | Print | Product List | Glossary On
Versions: 1 2 3 4 5 6 7 8 9 10 11 12 13 14 15
000
FTUS42 KTBW 191129
TAFPGD
TAF
KPGD 191129Z 1912/2012 08005KT P6SM SKC
      TEMPO 1912/1913 3SM BR
     FM191400 11011KT P6SM FEW035 FEW200
     FM200200 09006KT P6SM FEW020=

USA.gov is the U.S. government's official web portal to all federal, state and local government web resources and services.